Terminal Aerodrome Forecast
Issued by NWS

Home | Current Version | Previous Version | Graphics & Text | Print | Product List | Glossary On
Versions: 1 2 3 4 5 6 7 8 9 10 11 12 13 14 15 16 17 18 19 20 21 22 23 24
000
FTUS43 KTOP 181100
TAFMHK
TAF
KMHK 181121Z 1812/1912 08007KT P6SM BKN008
     FM181700 09008KT P6SM BKN015
     FM181800 11008KT P6SM SCT015 SCT150
     FM190700 18006KT 4SM BR BKN007=

USA.gov is the U.S. government's official web portal to all federal, state and local government web resources and services.